createdAt,value
2023-01-09T00:00:04.168Z,990.3
2023-01-09T00:01:07.294Z,990.3
2023-01-09T00:02:10.547Z,990.3
2023-01-09T00:03:14.098Z,990.3
2023-01-09T00:04:17.368Z,990.4
2023-01-09T00:05:20.537Z,990.3
2023-01-09T00:06:24.093Z,990.4
2023-01-09T00:07:27.903Z,990.4
2023-01-09T00:08:31.323Z,990.4
2023-01-09T00:09:34.387Z,990.4
2023-01-09T00:10:37.674Z,990.4
2023-01-09T00:11:40.594Z,990.3
2023-01-09T00:12:43.709Z,990.3
2023-01-09T00:13:46.762Z,990.3
2023-01-09T00:14:49.600Z,990.3
2023-01-09T00:15:53.024Z,990.2
2023-01-09T00:16:56.622Z,990.3
2023-01-09T00:18:00.970Z,990.2
2023-01-09T00:19:03.668Z,990.2
2023-01-09T00:20:06.399Z,990.2
2023-01-09T00:21:08.683Z,990.2
2023-01-09T00:22:12.276Z,990.2
2023-01-09T00:23:16.099Z,990.2
2023-01-09T00:24:19.356Z,990.2
2023-01-09T00:25:23.233Z,990.2
2023-01-09T00:26:25.718Z,990.3
2023-01-09T00:27:29.601Z,990.2
2023-01-09T00:28:32.740Z,990.2
2023-01-09T00:29:36.191Z,990.2
2023-01-09T00:30:39.378Z,990.2
2023-01-09T00:31:42.986Z,990.2
2023-01-09T00:32:45.747Z,990.1
2023-01-09T00:33:48.880Z,990.2
2023-01-09T00:34:52.293Z,990.1
2023-01-09T00:35:55.508Z,990.1
2023-01-09T00:36:58.326Z,990.1
2023-01-09T00:38:16.702Z,990.1
2023-01-09T00:39:20.736Z,990.1
2023-01-09T00:40:23.781Z,990.1
2023-01-09T00:41:27.728Z,990.1
2023-01-09T00:42:30.475Z,990.1
2023-01-09T00:43:33.573Z,990.1
2023-01-09T00:44:37.154Z,990.1
2023-01-09T00:45:40.358Z,990
2023-01-09T00:46:43.868Z,989.9
2023-01-09T00:47:47.655Z,990
2023-01-09T00:48:49.840Z,989.9
2023-01-09T00:49:53.747Z,990
2023-01-09T00:50:55.897Z,990
2023-01-09T00:51:59.270Z,989.9
2023-01-09T00:53:02.366Z,989.9
2023-01-09T00:54:06.072Z,989.9
2023-01-09T00:55:09.546Z,989.9
2023-01-09T00:56:12.146Z,989.9
2023-01-09T00:57:14.667Z,989.9
2023-01-09T00:58:17.551Z,989.9
2023-01-09T00:59:20.593Z,989.9
2023-01-09T01:00:23.595Z,989.9
2023-01-09T01:01:26.862Z,990
2023-01-09T01:02:30.867Z,990
2023-01-09T01:03:34.168Z,989.9
2023-01-09T01:04:37.257Z,989.9
2023-01-09T01:05:40.282Z,989.9
2023-01-09T01:06:44.078Z,989.9
2023-01-09T01:07:46.869Z,989.9
2023-01-09T01:08:49.105Z,989.9
2023-01-09T01:09:52.558Z,989.9
2023-01-09T01:10:56.801Z,989.9
2023-01-09T01:11:59.538Z,989.9
2023-01-09T01:13:03.166Z,989.9
2023-01-09T01:14:05.946Z,989.9
2023-01-09T01:15:09.712Z,989.9
2023-01-09T01:16:13.151Z,989.9
2023-01-09T01:17:15.665Z,989.8
2023-01-09T01:18:19.093Z,989.9
2023-01-09T01:19:22.155Z,989.8
2023-01-09T01:20:25.425Z,989.8
2023-01-09T01:21:28.296Z,989.8
2023-01-09T01:22:30.755Z,989.8
2023-01-09T01:23:33.530Z,989.7
2023-01-09T01:24:36.591Z,989.8
2023-01-09T01:25:39.821Z,989.7
2023-01-09T01:26:43.979Z,989.7
2023-01-09T01:27:47.637Z,989.7
2023-01-09T01:28:50.102Z,989.6
2023-01-09T01:29:53.249Z,989.6
2023-01-09T01:30:56.372Z,989.6
2023-01-09T01:31:59.787Z,989.6
2023-01-09T01:33:02.250Z,989.6
2023-01-09T01:34:04.783Z,989.6
2023-01-09T01:35:08.055Z,989.6
2023-01-09T01:36:11.085Z,989.6
2023-01-09T01:37:14.086Z,989.6
2023-01-09T01:38:17.091Z,989.6
2023-01-09T01:39:20.440Z,989.7
2023-01-09T01:40:23.561Z,989.7
2023-01-09T01:41:27.274Z,989.8
2023-01-09T01:42:30.760Z,989.8
2023-01-09T01:43:33.569Z,989.8
2023-01-09T01:44:36.291Z,989.8
2023-01-09T01:45:39.061Z,989.8
2023-01-09T01:46:42.029Z,989.8
2023-01-09T01:47:45.112Z,989.8
2023-01-09T01:48:47.951Z,989.8
2023-01-09T01:49:51.362Z,989.8
2023-01-09T01:50:54.633Z,989.8
2023-01-09T01:51:58.010Z,989.7
2023-01-09T01:53:01.464Z,989.7
2023-01-09T01:54:04.944Z,989.7
2023-01-09T01:55:08.338Z,989.7
2023-01-09T01:56:11.397Z,989.7
2023-01-09T01:57:15.465Z,989.7
2023-01-09T01:58:19.236Z,989.7
2023-01-09T01:59:22.241Z,989.7
2023-01-09T02:00:24.427Z,989.6
2023-01-09T02:01:27.793Z,989.6
2023-01-09T02:02:31.963Z,989.6
2023-01-09T02:03:34.850Z,989.6
2023-01-09T02:04:38.238Z,989.6
2023-01-09T02:05:41.075Z,989.6
2023-01-09T02:06:43.864Z,989.6
2023-01-09T02:07:46.399Z,989.6
2023-01-09T02:08:49.176Z,989.6
2023-01-09T02:09:51.893Z,989.6
2023-01-09T02:10:55.242Z,989.5
2023-01-09T02:11:58.652Z,989.5
2023-01-09T02:13:02.447Z,989.5
2023-01-09T02:14:05.891Z,989.5
2023-01-09T02:15:09.311Z,989.5
2023-01-09T02:16:12.535Z,989.5
2023-01-09T02:17:15.892Z,989.5
2023-01-09T02:18:19.402Z,989.5
2023-01-09T02:19:22.110Z,989.5
2023-01-09T02:20:24.382Z,989.5
2023-01-09T02:21:27.103Z,989.4
2023-01-09T02:22:29.886Z,989.4
2023-01-09T02:23:32.947Z,989.4
2023-01-09T02:24:36.593Z,989.4
2023-01-09T02:25:40.030Z,989.4
2023-01-09T02:26:43.028Z,989.4
2023-01-09T02:27:46.125Z,989.4
2023-01-09T02:28:49.712Z,989.4
2023-01-09T02:29:53.097Z,989.5
2023-01-09T02:30:56.162Z,989.4
2023-01-09T02:31:59.233Z,989.4
2023-01-09T02:33:02.631Z,989.4
2023-01-09T02:34:06.154Z,989.3
2023-01-09T02:35:08.856Z,989.4
2023-01-09T02:36:12.533Z,989.3
2023-01-09T02:37:15.393Z,989.4
2023-01-09T02:38:18.473Z,989.4
2023-01-09T02:39:21.268Z,989.4
2023-01-09T02:40:25.052Z,989.4
2023-01-09T02:41:28.458Z,989.4
2023-01-09T02:42:31.244Z,989.3
2023-01-09T02:43:33.969Z,989.3
2023-01-09T02:44:37.820Z,989.3
2023-01-09T02:45:42.170Z,989.4
2023-01-09T02:46:45.452Z,989.4
2023-01-09T02:47:48.455Z,989.4
2023-01-09T02:48:51.419Z,989.4
2023-01-09T02:49:54.882Z,989.4
2023-01-09T02:50:57.632Z,989.4
2023-01-09T02:52:01.067Z,989.4
2023-01-09T02:53:04.354Z,989.4
2023-01-09T02:54:07.344Z,989.3
2023-01-09T02:55:10.808Z,989.3
2023-01-09T02:56:13.827Z,989.3
2023-01-09T02:57:17.848Z,989.3
2023-01-09T02:58:19.547Z,989.3
2023-01-09T02:59:23.161Z,989.3
2023-01-09T03:00:26.112Z,989.3
2023-01-09T03:01:29.823Z,989.3
2023-01-09T03:02:33.606Z,989.2
2023-01-09T03:03:36.898Z,989.2
2023-01-09T03:04:40.298Z,989.2
2023-01-09T03:05:42.856Z,989.2
2023-01-09T03:06:46.181Z,989.1
2023-01-09T03:07:49.179Z,989.2
2023-01-09T03:08:52.956Z,989.1
2023-01-09T03:09:56.310Z,989.1
2023-01-09T03:10:59.367Z,989.2
2023-01-09T03:12:02.174Z,989.1
2023-01-09T03:13:05.252Z,989.2
2023-01-09T03:14:08.684Z,989.2
2023-01-09T03:15:11.947Z,989.2
2023-01-09T03:16:15.506Z,989.2
2023-01-09T03:17:19.226Z,989.2
2023-01-09T03:18:22.027Z,989.2
2023-01-09T03:19:24.861Z,989.2
2023-01-09T03:20:27.590Z,989.2
2023-01-09T03:21:30.756Z,989.2
2023-01-09T03:22:33.518Z,989.2
2023-01-09T03:23:36.682Z,989.2
2023-01-09T03:24:39.663Z,989.2
2023-01-09T03:25:42.641Z,989.2
2023-01-09T03:26:45.401Z,989.2
2023-01-09T03:27:48.765Z,989.1
2023-01-09T03:28:51.537Z,989.2
2023-01-09T03:29:54.558Z,989.1
2023-01-09T03:30:57.062Z,989.1
2023-01-09T03:32:00.615Z,989.1
2023-01-09T03:33:03.774Z,989.1
2023-01-09T03:34:06.861Z,989.1
2023-01-09T03:35:10.157Z,989.1
2023-01-09T03:36:13.405Z,989.1
2023-01-09T03:37:17.072Z,989.1
2023-01-09T03:38:20.777Z,989.1
2023-01-09T03:39:23.856Z,989
2023-01-09T03:40:27.585Z,989
2023-01-09T03:41:30.724Z,989
2023-01-09T03:42:34.363Z,989
2023-01-09T03:43:38.080Z,989
2023-01-09T03:44:40.543Z,989
2023-01-09T03:45:43.523Z,988.9
2023-01-09T03:46:47.024Z,989
2023-01-09T03:47:53.356Z,989
2023-01-09T03:48:57.088Z,989
2023-01-09T03:50:00.343Z,989
2023-01-09T03:51:03.742Z,988.9
2023-01-09T03:52:07.775Z,988.9
2023-01-09T03:53:11.105Z,988.9
2023-01-09T03:54:14.843Z,988.9
2023-01-09T03:55:17.839Z,988.8
2023-01-09T03:56:20.965Z,988.9
2023-01-09T03:57:23.977Z,988.9
2023-01-09T03:58:27.599Z,988.8
2023-01-09T03:59:30.596Z,988.9
2023-01-09T04:00:33.969Z,988.8
2023-01-09T04:01:37.039Z,988.8
2023-01-09T04:02:40.660Z,988.7
2023-01-09T04:03:43.679Z,988.7
2023-01-09T04:04:47.635Z,988.7
2023-01-09T04:05:50.967Z,988.7
2023-01-09T04:06:53.788Z,988.7
2023-01-09T04:07:56.507Z,988.7
2023-01-09T04:08:59.704Z,988.7
2023-01-09T04:10:02.676Z,988.7
2023-01-09T04:11:05.677Z,988.6
2023-01-09T04:12:09.182Z,988.7
2023-01-09T04:13:11.946Z,988.7
2023-01-09T04:14:13.841Z,988.7
2023-01-09T04:15:16.832Z,988.7
2023-01-09T04:16:19.902Z,988.7
2023-01-09T04:17:23.515Z,988.7
2023-01-09T04:18:27.016Z,988.7
2023-01-09T04:19:30.809Z,988.7
2023-01-09T04:20:34.218Z,988.7
2023-01-09T04:21:37.059Z,988.6
2023-01-09T04:22:40.319Z,988.6
2023-01-09T04:23:44.036Z,988.6
2023-01-09T04:24:47.172Z,988.5
2023-01-09T04:25:49.976Z,988.5
2023-01-09T04:26:53.699Z,988.5
2023-01-09T04:27:56.444Z,988.5
2023-01-09T04:28:59.880Z,988.5
2023-01-09T04:30:03.246Z,988.4
2023-01-09T04:31:06.435Z,988.4
2023-01-09T04:32:09.718Z,988.4
2023-01-09T04:33:12.424Z,988.4
2023-01-09T04:34:16.062Z,988.3
2023-01-09T04:35:19.228Z,988.3
2023-01-09T04:36:22.695Z,988.3
2023-01-09T04:37:26.066Z,988.2
2023-01-09T04:38:29.071Z,988.2
2023-01-09T04:39:32.722Z,988.2
2023-01-09T04:40:36.219Z,988.2
2023-01-09T04:41:39.322Z,988.2
2023-01-09T04:42:42.778Z,988.2
2023-01-09T04:43:45.240Z,988.2
2023-01-09T04:44:47.960Z,988.2
2023-01-09T04:45:50.980Z,988.2
2023-01-09T04:46:54.672Z,988.1
2023-01-09T04:47:57.820Z,988.1
2023-01-09T04:49:00.543Z,988.2
2023-01-09T04:50:03.789Z,988.1
2023-01-09T04:51:07.647Z,988.2
2023-01-09T04:52:11.098Z,988.2
2023-01-09T04:53:13.868Z,988.2
2023-01-09T04:54:17.252Z,988.3
2023-01-09T04:55:20.035Z,988.2
2023-01-09T04:56:23.074Z,988.3
2023-01-09T04:57:26.142Z,988.4
2023-01-09T04:58:28.659Z,988.3
2023-01-09T04:59:32.029Z,988.4
2023-01-09T05:00:35.107Z,988.4
2023-01-09T05:01:38.457Z,988.4
2023-01-09T05:02:42.181Z,988.4
2023-01-09T05:03:45.940Z,988.4
2023-01-09T05:04:48.851Z,988.4
2023-01-09T05:05:52.026Z,988.4
2023-01-09T05:06:56.132Z,988.4
2023-01-09T05:07:59.607Z,988.4
2023-01-09T05:09:02.649Z,988.4
2023-01-09T05:10:05.574Z,988.4
2023-01-09T05:11:08.596Z,988.4
2023-01-09T05:12:12.276Z,988.4
2023-01-09T05:13:14.706Z,988.4
2023-01-09T05:14:17.479Z,988.4
2023-01-09T05:15:20.752Z,988.4
2023-01-09T05:16:23.568Z,988.4
2023-01-09T05:17:26.817Z,988.4
2023-01-09T05:18:29.712Z,988.4
2023-01-09T05:19:33.043Z,988.4
2023-01-09T05:20:36.043Z,988.4
2023-01-09T05:21:39.173Z,988.4
2023-01-09T05:22:43.241Z,988.4
2023-01-09T05:23:46.989Z,988.4
2023-01-09T05:24:50.337Z,988.4
2023-01-09T05:25:53.234Z,988.4
2023-01-09T05:26:56.301Z,988.4
2023-01-09T05:27:59.332Z,988.4
2023-01-09T05:29:02.533Z,988.4
2023-01-09T05:30:05.738Z,988.4
2023-01-09T05:31:07.924Z,988.5
2023-01-09T05:32:10.350Z,988.5
2023-01-09T05:33:13.175Z,988.4
2023-01-09T05:34:16.185Z,988.4
2023-01-09T05:35:19.234Z,988.4
2023-01-09T05:36:22.272Z,988.4
2023-01-09T05:37:25.645Z,988.4
2023-01-09T05:38:28.775Z,988.4
2023-01-09T05:39:32.474Z,988.4
2023-01-09T05:40:40.960Z,988.4
2023-01-09T05:41:43.661Z,988.3
2023-01-09T05:42:46.389Z,988.4
2023-01-09T05:43:49.469Z,988.4
2023-01-09T05:44:52.449Z,988.3
2023-01-09T05:45:55.255Z,988.3
2023-01-09T05:46:58.702Z,988.3
2023-01-09T05:48:04.782Z,988.3
2023-01-09T05:49:07.613Z,988.3
2023-01-09T05:50:09.488Z,988.3
2023-01-09T05:51:12.487Z,988.3
2023-01-09T05:52:15.577Z,988.4
2023-01-09T05:53:17.888Z,988.3
2023-01-09T05:54:21.054Z,988.3
2023-01-09T05:55:24.530Z,988.3
2023-01-09T05:56:27.517Z,988.3
2023-01-09T05:57:31.260Z,988.3
2023-01-09T05:58:34.326Z,988.2
2023-01-09T05:59:38.010Z,988.2
2023-01-09T06:00:41.418Z,988.3
2023-01-09T06:01:44.640Z,988.3
2023-01-09T06:02:47.673Z,988.3
2023-01-09T06:03:50.991Z,988.2
2023-01-09T06:04:54.363Z,988.2
2023-01-09T06:05:57.830Z,988.3
2023-01-09T06:07:00.909Z,988.3
2023-01-09T06:08:03.919Z,988.3
2023-01-09T06:09:07.009Z,988.3
2023-01-09T06:10:10.325Z,988.3
2023-01-09T06:11:13.967Z,988.3
2023-01-09T06:12:17.958Z,988.3
2023-01-09T06:13:21.120Z,988.3
2023-01-09T06:14:24.124Z,988.3
2023-01-09T06:15:27.892Z,988.4
2023-01-09T06:16:31.227Z,988.4
2023-01-09T06:17:34.088Z,988.3
2023-01-09T06:18:37.217Z,988.3
2023-01-09T06:19:40.933Z,988.3
2023-01-09T06:20:44.160Z,988.3
2023-01-09T06:21:47.201Z,988.3
2023-01-09T06:22:49.971Z,988.3
2023-01-09T06:23:53.601Z,988.3
2023-01-09T06:24:56.583Z,988.4
2023-01-09T06:26:00.363Z,988.3
2023-01-09T06:27:03.864Z,988.3
2023-01-09T06:28:06.569Z,988.3
2023-01-09T06:29:09.832Z,988.3
2023-01-09T06:30:12.993Z,988.3
2023-01-09T06:31:15.935Z,988.3
2023-01-09T06:32:19.009Z,988.3
2023-01-09T06:33:22.011Z,988.3
2023-01-09T06:34:25.058Z,988.3
2023-01-09T06:35:28.162Z,988.3
2023-01-09T06:36:31.177Z,988.3
2023-01-09T06:37:33.732Z,988.3
2023-01-09T06:38:37.094Z,988.3
2023-01-09T06:39:39.027Z,988.3
2023-01-09T06:40:41.882Z,988.3
2023-01-09T06:41:48.635Z,988.3
2023-01-09T06:42:52.807Z,988.3
2023-01-09T06:43:56.068Z,988.3
2023-01-09T06:44:58.958Z,988.3
2023-01-09T06:46:02.215Z,988.3
2023-01-09T06:47:05.539Z,988.3
2023-01-09T06:48:08.531Z,988.3
2023-01-09T06:49:11.543Z,988.3
2023-01-09T06:50:14.426Z,988.3
2023-01-09T06:51:18.155Z,988.3
2023-01-09T06:52:21.252Z,988.3
2023-01-09T06:53:24.502Z,988.3
2023-01-09T06:54:29.039Z,988.3
2023-01-09T06:55:32.749Z,988.2
2023-01-09T06:56:35.757Z,988.2
2023-01-09T06:57:38.952Z,988.2
2023-01-09T06:58:43.046Z,988.2
2023-01-09T06:59:46.426Z,988.2
2023-01-09T07:00:49.564Z,988.2
2023-01-09T07:01:52.708Z,988.2
2023-01-09T07:02:56.708Z,988.2
2023-01-09T07:03:59.227Z,988.2
2023-01-09T07:05:02.541Z,988.2
2023-01-09T07:06:05.367Z,988.2
2023-01-09T07:07:08.349Z,988.2
2023-01-09T07:08:11.172Z,988.2
2023-01-09T07:09:14.610Z,988.2
2023-01-09T07:10:17.936Z,988.2
2023-01-09T07:11:20.645Z,988.2
2023-01-09T07:12:23.660Z,988.2
2023-01-09T07:13:27.500Z,988.2
2023-01-09T07:14:31.357Z,988.2
2023-01-09T07:15:34.747Z,988.2
2023-01-09T07:16:38.261Z,988.2
2023-01-09T07:17:41.672Z,988.2
2023-01-09T07:18:44.979Z,988.2
2023-01-09T07:19:48.362Z,988.2
2023-01-09T07:20:51.080Z,988.2
2023-01-09T07:21:54.465Z,988.2
2023-01-09T07:22:56.967Z,988.2
2023-01-09T07:23:59.188Z,988.3
2023-01-09T07:25:01.911Z,988.3
2023-01-09T07:26:05.319Z,988.3
2023-01-09T07:27:08.448Z,988.2
2023-01-09T07:28:11.184Z,988.2
2023-01-09T07:29:15.061Z,988.2
2023-01-09T07:30:18.650Z,988.3
2023-01-09T07:31:21.978Z,988.2
2023-01-09T07:32:25.942Z,988.2
2023-01-09T07:33:28.935Z,988.3
2023-01-09T07:34:32.619Z,988.3
2023-01-09T07:35:36.357Z,988.3
2023-01-09T07:36:39.113Z,988.3
2023-01-09T07:37:42.184Z,988.4
2023-01-09T07:38:45.532Z,988.4
2023-01-09T07:39:48.000Z,988.4
2023-01-09T07:40:50.810Z,988.4
2023-01-09T07:41:53.957Z,988.4
2023-01-09T07:42:57.089Z,988.4
2023-01-09T07:44:00.502Z,988.4
2023-01-09T07:45:04.073Z,988.4
2023-01-09T07:46:07.587Z,988.4
2023-01-09T07:47:11.168Z,988.4
2023-01-09T07:48:14.488Z,988.3
2023-01-09T07:49:17.556Z,988.4
2023-01-09T07:50:20.116Z,988.4
2023-01-09T07:51:23.244Z,988.4
2023-01-09T07:52:26.298Z,988.4
2023-01-09T07:53:29.317Z,988.4
2023-01-09T07:54:32.770Z,988.4
2023-01-09T07:55:35.945Z,988.3
2023-01-09T07:56:39.578Z,988.4
2023-01-09T07:57:42.817Z,988.4
2023-01-09T07:58:45.805Z,988.4
2023-01-09T07:59:49.220Z,988.4
2023-01-09T08:00:52.725Z,988.4
2023-01-09T08:01:56.571Z,988.4
2023-01-09T08:03:00.593Z,988.4
2023-01-09T08:04:04.998Z,988.4
2023-01-09T08:05:08.569Z,988.4
2023-01-09T08:06:11.714Z,988.4
2023-01-09T08:07:15.273Z,988.4
2023-01-09T08:08:18.241Z,988.4
2023-01-09T08:09:21.847Z,988.4
2023-01-09T08:10:25.194Z,988.4
2023-01-09T08:11:28.564Z,988.4
2023-01-09T08:12:31.580Z,988.4
2023-01-09T08:13:34.647Z,988.4
2023-01-09T08:14:38.015Z,988.5
2023-01-09T08:15:41.135Z,988.5
2023-01-09T08:16:44.926Z,988.5
2023-01-09T08:17:48.647Z,988.5
2023-01-09T08:18:52.641Z,988.6
2023-01-09T08:19:55.595Z,988.5
2023-01-09T08:20:59.239Z,988.6
2023-01-09T08:22:02.111Z,988.6
2023-01-09T08:23:05.213Z,988.6
2023-01-09T08:24:08.287Z,988.6
2023-01-09T08:25:13.124Z,988.6
2023-01-09T08:26:16.490Z,988.6
2023-01-09T08:27:19.842Z,988.6
2023-01-09T08:28:23.115Z,988.6
2023-01-09T08:29:26.829Z,988.6
2023-01-09T08:30:30.311Z,988.6
2023-01-09T08:31:33.564Z,988.6
2023-01-09T08:32:37.418Z,988.6
2023-01-09T08:33:41.542Z,988.7
2023-01-09T08:34:45.064Z,988.7
2023-01-09T08:35:48.776Z,988.7
2023-01-09T08:36:52.107Z,988.7
2023-01-09T08:37:55.553Z,988.7
2023-01-09T08:38:58.348Z,988.7
2023-01-09T08:40:01.137Z,988.7
2023-01-09T08:41:04.865Z,988.7
2023-01-09T08:42:07.861Z,988.7
2023-01-09T08:43:10.987Z,988.7
2023-01-09T08:44:14.626Z,988.7
2023-01-09T08:45:17.984Z,988.7
2023-01-09T08:46:20.910Z,988.7
2023-01-09T08:47:24.219Z,988.7
2023-01-09T08:48:27.730Z,988.8
2023-01-09T08:49:31.211Z,988.8
2023-01-09T08:50:34.570Z,988.8
2023-01-09T08:51:37.790Z,988.8
2023-01-09T08:52:40.612Z,988.8
2023-01-09T08:53:43.953Z,988.8
2023-01-09T08:54:46.685Z,988.8
2023-01-09T08:55:49.303Z,988.9
2023-01-09T08:56:52.037Z,988.9
2023-01-09T08:57:55.102Z,988.9
2023-01-09T08:58:58.093Z,988.9
2023-01-09T09:00:00.922Z,988.9
2023-01-09T09:01:04.097Z,988.9
2023-01-09T09:02:07.720Z,989
2023-01-09T09:03:11.750Z,988.9
2023-01-09T09:04:15.598Z,988.9
2023-01-09T09:05:19.366Z,989
2023-01-09T09:06:22.203Z,989
2023-01-09T09:07:25.239Z,988.9
2023-01-09T09:08:29.063Z,989
2023-01-09T09:09:32.836Z,989
2023-01-09T09:10:35.977Z,989
2023-01-09T09:11:39.356Z,989
2023-01-09T09:12:42.342Z,989
2023-01-09T09:13:44.464Z,989
2023-01-09T09:14:46.968Z,989
2023-01-09T09:15:50.590Z,989
2023-01-09T09:16:53.719Z,989
2023-01-09T09:17:56.173Z,989
2023-01-09T09:18:59.615Z,989
2023-01-09T09:20:02.937Z,988.9
2023-01-09T09:21:06.641Z,988.9
2023-01-09T09:22:11.773Z,989
2023-01-09T09:23:15.147Z,989
2023-01-09T09:24:17.857Z,989
2023-01-09T09:25:21.618Z,989
2023-01-09T09:26:25.776Z,989.1
2023-01-09T09:27:28.768Z,989.1
2023-01-09T09:28:32.154Z,989.1
2023-01-09T09:29:35.862Z,989.1
2023-01-09T09:30:39.506Z,989.1
2023-01-09T09:31:43.191Z,989.1
2023-01-09T09:32:46.267Z,989.2
2023-01-09T09:33:50.024Z,989.2
2023-01-09T09:34:53.108Z,989.1
2023-01-09T09:35:57.189Z,989.2
2023-01-09T09:37:01.091Z,989.2
2023-01-09T09:38:06.191Z,989.2
2023-01-09T09:39:09.299Z,989.2
2023-01-09T09:40:19.377Z,989.2
2023-01-09T09:41:23.124Z,989.2
2023-01-09T09:42:26.732Z,989.2
2023-01-09T09:43:30.380Z,989.2
2023-01-09T09:44:33.643Z,989.2
2023-01-09T09:45:36.896Z,989.3
2023-01-09T09:46:40.078Z,989.3
2023-01-09T09:47:44.436Z,989.3
2023-01-09T09:48:47.549Z,989.4
2023-01-09T09:49:50.972Z,989.3
2023-01-09T09:50:54.338Z,989.4
2023-01-09T09:51:56.696Z,989.4
2023-01-09T09:53:00.460Z,989.4
2023-01-09T09:54:04.196Z,989.4
2023-01-09T09:55:07.675Z,989.5
2023-01-09T09:56:10.753Z,989.4
2023-01-09T09:57:13.917Z,989.5
2023-01-09T09:58:17.569Z,989.5
2023-01-09T09:59:21.341Z,989.5
2023-01-09T10:00:25.078Z,989.5
2023-01-09T10:01:28.827Z,989.5
2023-01-09T10:02:32.629Z,989.5
2023-01-09T10:03:36.139Z,989.5
2023-01-09T10:04:40.559Z,989.5
2023-01-09T10:05:44.267Z,989.5
2023-01-09T10:06:47.263Z,989.6
2023-01-09T10:07:51.068Z,989.5
2023-01-09T10:08:54.249Z,989.6
2023-01-09T10:09:57.315Z,989.6
2023-01-09T10:11:01.129Z,989.6
2023-01-09T10:12:04.123Z,989.6
2023-01-09T10:13:07.018Z,989.6
2023-01-09T10:14:24.633Z,989.6
2023-01-09T10:15:28.735Z,989.6
2023-01-09T10:16:31.310Z,989.7
2023-01-09T10:17:34.947Z,989.7
2023-01-09T10:18:38.310Z,989.7
2023-01-09T10:19:41.732Z,989.7
2023-01-09T10:20:45.224Z,989.6
2023-01-09T10:21:48.261Z,989.7
2023-01-09T10:22:51.971Z,989.6
2023-01-09T10:23:55.603Z,989.6
2023-01-09T10:24:59.399Z,989.7
2023-01-09T10:26:02.362Z,989.7
2023-01-09T10:27:05.819Z,989.7
2023-01-09T10:28:09.657Z,989.7
2023-01-09T10:29:13.021Z,989.7
2023-01-09T10:30:15.562Z,989.8
2023-01-09T10:31:19.040Z,989.8
2023-01-09T10:32:23.360Z,989.8
2023-01-09T10:33:26.539Z,989.8
2023-01-09T10:34:30.285Z,989.8
2023-01-09T10:35:48.362Z,989.8
2023-01-09T10:36:51.574Z,989.9
2023-01-09T10:37:54.995Z,989.8
2023-01-09T10:38:58.190Z,989.8
2023-01-09T10:40:02.348Z,989.9
2023-01-09T10:41:05.416Z,989.9
2023-01-09T10:42:08.407Z,989.9
2023-01-09T10:43:11.411Z,989.9
2023-01-09T10:44:14.504Z,989.9
2023-01-09T10:45:18.577Z,989.9
2023-01-09T10:46:22.654Z,989.9
2023-01-09T10:47:26.752Z,989.9
2023-01-09T10:48:30.141Z,989.9
2023-01-09T10:49:33.293Z,989.9
2023-01-09T10:50:36.562Z,990
2023-01-09T10:51:39.066Z,990
2023-01-09T10:52:41.887Z,989.9
2023-01-09T10:53:44.688Z,990
2023-01-09T10:54:48.736Z,990
2023-01-09T10:55:52.970Z,990
2023-01-09T10:56:56.608Z,990
2023-01-09T10:57:59.965Z,990
2023-01-09T10:59:03.724Z,990
2023-01-09T11:00:06.536Z,990
2023-01-09T11:01:10.309Z,990
2023-01-09T11:02:13.404Z,990
2023-01-09T11:03:16.907Z,990
2023-01-09T11:04:20.249Z,990.1
2023-01-09T11:05:23.497Z,990
2023-01-09T11:06:27.567Z,990.1
2023-01-09T11:07:30.828Z,990.1
2023-01-09T11:08:33.607Z,990.1
2023-01-09T11:09:36.892Z,990
2023-01-09T11:10:40.632Z,990.1
2023-01-09T11:11:43.833Z,990
2023-01-09T11:12:46.899Z,990.1
2023-01-09T11:13:49.717Z,990.1
2023-01-09T11:14:53.109Z,990.1
2023-01-09T11:15:56.530Z,990.2
2023-01-09T11:17:00.113Z,990.2
2023-01-09T11:18:03.731Z,990.1
2023-01-09T11:19:06.867Z,990.2
2023-01-09T11:20:10.888Z,990.2
2023-01-09T11:21:16.517Z,990.2
2023-01-09T11:22:20.256Z,990.2
2023-01-09T11:23:23.612Z,990.2
2023-01-09T11:24:27.117Z,990.2
2023-01-09T11:25:29.677Z,990.2
2023-01-09T11:26:33.506Z,990.3
2023-01-09T11:27:37.256Z,990.3
2023-01-09T11:28:40.628Z,990.2
2023-01-09T11:29:44.095Z,990.2
2023-01-09T11:30:47.148Z,990.2
2023-01-09T11:31:50.695Z,990.2
2023-01-09T11:32:54.148Z,990.3
2023-01-09T11:33:57.145Z,990.2
2023-01-09T11:35:00.561Z,990.2
2023-01-09T11:36:04.191Z,990.3
2023-01-09T11:37:07.222Z,990.3
2023-01-09T11:38:11.243Z,990.2
2023-01-09T11:39:14.600Z,990.2
2023-01-09T11:40:17.615Z,990.3
2023-01-09T11:41:21.447Z,990.3
2023-01-09T11:42:24.938Z,990.3
2023-01-09T11:43:29.075Z,990.3
2023-01-09T11:44:32.377Z,990.3
2023-01-09T11:45:35.823Z,990.4
2023-01-09T11:46:39.333Z,990.3
2023-01-09T11:47:42.644Z,990.3
2023-01-09T11:48:45.669Z,990.3
2023-01-09T11:49:51.745Z,990.4
2023-01-09T11:50:54.453Z,990.3
2023-01-09T11:51:57.185Z,990.3
2023-01-09T11:52:59.886Z,990.4
2023-01-09T11:54:02.625Z,990.4
2023-01-09T11:55:06.350Z,990.4
2023-01-09T11:56:09.361Z,990.4
2023-01-09T11:57:12.189Z,990.4
2023-01-09T11:58:16.274Z,990.4
2023-01-09T11:59:20.205Z,990.4
2023-01-09T12:00:23.628Z,990.4
2023-01-09T12:01:26.970Z,990.4
2023-01-09T12:02:30.227Z,990.4
2023-01-09T12:03:33.601Z,990.4
2023-01-09T12:04:36.699Z,990.4
2023-01-09T12:05:40.109Z,990.4
2023-01-09T12:06:43.517Z,990.4
2023-01-09T12:07:47.232Z,990.3
2023-01-09T12:08:50.689Z,990.3
2023-01-09T12:09:54.186Z,990.3
2023-01-09T12:10:57.937Z,990.3
2023-01-09T12:12:01.569Z,990.4
2023-01-09T12:13:05.265Z,990.4
2023-01-09T12:14:09.018Z,990.4
2023-01-09T12:15:12.490Z,990.4
2023-01-09T12:16:15.144Z,990.4
2023-01-09T12:17:19.159Z,990.4
2023-01-09T12:18:22.442Z,990.4
2023-01-09T12:19:25.659Z,990.4
2023-01-09T12:20:29.053Z,990.5
2023-01-09T12:21:32.404Z,990.5
2023-01-09T12:22:35.557Z,990.5
2023-01-09T12:23:38.833Z,990.5
2023-01-09T12:24:42.075Z,990.5
2023-01-09T12:25:45.087Z,990.6
2023-01-09T12:26:48.778Z,990.6
2023-01-09T12:27:51.882Z,990.6
2023-01-09T12:28:55.338Z,990.8
2023-01-09T12:29:58.562Z,990.7
2023-01-09T12:31:02.416Z,990.7
2023-01-09T12:32:06.147Z,990.6
2023-01-09T12:33:09.689Z,990.6
2023-01-09T12:34:13.412Z,990.7
2023-01-09T12:35:17.073Z,990.7
2023-01-09T12:36:19.829Z,990.6
2023-01-09T12:37:23.519Z,990.7
2023-01-09T12:38:27.306Z,990.7
2023-01-09T12:39:31.199Z,990.7
2023-01-09T12:40:33.951Z,990.7
2023-01-09T12:41:36.801Z,990.6
2023-01-09T12:42:40.193Z,990.7
2023-01-09T12:43:42.910Z,990.7
2023-01-09T12:44:45.963Z,990.7
2023-01-09T12:45:49.565Z,990.7
2023-01-09T12:46:53.676Z,990.7
2023-01-09T12:47:56.954Z,990.7
2023-01-09T12:48:59.878Z,990.7
2023-01-09T12:50:03.092Z,990.8
2023-01-09T12:51:06.438Z,990.8
2023-01-09T12:52:09.558Z,990.8
2023-01-09T12:53:13.216Z,990.8
2023-01-09T12:54:16.702Z,990.8
2023-01-09T12:55:19.495Z,990.8
2023-01-09T12:56:22.875Z,990.9
2023-01-09T12:57:26.335Z,990.8
2023-01-09T12:58:29.378Z,990.8
2023-01-09T12:59:32.667Z,990.8
2023-01-09T13:00:36.390Z,990.8
2023-01-09T13:01:40.189Z,990.9
2023-01-09T13:02:43.890Z,990.9
2023-01-09T13:03:47.297Z,990.9
2023-01-09T13:04:51.293Z,990.9
2023-01-09T13:05:55.378Z,990.9
2023-01-09T13:06:59.409Z,991
2023-01-09T13:08:03.019Z,991
2023-01-09T13:09:06.454Z,991
2023-01-09T13:10:09.927Z,991
2023-01-09T13:11:21.352Z,991
2023-01-09T13:12:24.976Z,991
2023-01-09T13:13:28.096Z,991
2023-01-09T13:14:31.623Z,991
2023-01-09T13:15:35.269Z,990.9
2023-01-09T13:16:38.381Z,991
2023-01-09T13:17:42.526Z,991
2023-01-09T13:18:46.592Z,991
2023-01-09T13:19:49.967Z,991
2023-01-09T13:20:53.668Z,991.1
2023-01-09T13:21:57.183Z,991.1
2023-01-09T13:23:00.622Z,991
2023-01-09T13:24:03.997Z,991
2023-01-09T13:25:06.788Z,991
2023-01-09T13:26:09.785Z,991.1
2023-01-09T13:27:13.271Z,991
2023-01-09T13:28:17.017Z,991.1
2023-01-09T13:29:20.759Z,991.1
2023-01-09T13:30:24.322Z,991.1
2023-01-09T13:31:27.408Z,991
2023-01-09T13:32:31.077Z,991.1
2023-01-09T13:33:35.200Z,991
2023-01-09T13:34:38.837Z,991.1
2023-01-09T13:35:41.952Z,991
2023-01-09T13:36:45.127Z,991.1
2023-01-09T13:37:48.789Z,991.1
2023-01-09T13:38:51.969Z,991.1
2023-01-09T13:39:55.066Z,991.1
2023-01-09T13:40:58.200Z,991.1